createdAt,value
2024-02-07T00:01:38.966Z,91.20
2024-02-07T00:04:07.237Z,91.25
2024-02-07T00:06:34.245Z,90.99
2024-02-07T00:09:01.186Z,90.88
2024-02-07T00:11:28.015Z,90.91
2024-02-07T00:14:04.052Z,90.72
2024-02-07T00:16:31.022Z,90.75
2024-02-07T00:18:58.475Z,90.41
2024-02-07T00:21:26.925Z,90.33
2024-02-07T00:23:53.968Z,90.55
2024-02-07T00:26:20.827Z,90.27
2024-02-07T00:28:47.705Z,90.24
2024-02-07T00:31:16.044Z,90.17
2024-02-07T00:33:42.906Z,89.82
2024-02-07T00:36:09.937Z,89.78
2024-02-07T00:38:36.814Z,90.00
2024-02-07T00:41:04.063Z,89.55
2024-02-07T00:43:33.382Z,89.88
2024-02-07T00:46:00.456Z,89.68
2024-02-07T00:48:28.634Z,89.60
2024-02-07T00:50:55.390Z,89.55
2024-02-07T00:53:22.399Z,89.53
2024-02-07T00:55:49.628Z,89.43
2024-02-07T00:58:16.719Z,89.55
2024-02-07T01:00:43.797Z,89.55
2024-02-07T01:03:10.990Z,89.68
2024-02-07T01:05:39.441Z,89.67
2024-02-07T01:08:07.496Z,89.54
2024-02-07T01:10:34.906Z,89.60
2024-02-07T01:13:02.252Z,89.38
2024-02-07T01:15:29.583Z,89.53
2024-02-07T01:17:56.730Z,89.38
2024-02-07T01:20:24.096Z,89.33
2024-02-07T01:22:52.818Z,89.72
2024-02-07T01:25:20.107Z,89.58
2024-02-07T01:27:47.458Z,89.82
2024-02-07T01:30:14.744Z,89.46
2024-02-07T01:32:45.136Z,89.82
2024-02-07T01:35:13.051Z,89.80
2024-02-07T01:37:40.959Z,89.83
2024-02-07T01:40:14.950Z,89.89
2024-02-07T01:42:42.788Z,89.52
2024-02-07T01:45:23.783Z,89.95
2024-02-07T01:47:52.928Z,89.72
2024-02-07T01:50:22.130Z,89.64
2024-02-07T01:52:50.811Z,89.78
2024-02-07T01:55:20.346Z,89.59
2024-02-07T01:57:48.619Z,89.92
2024-02-07T02:00:16.217Z,89.83
2024-02-07T02:02:46.253Z,89.54
2024-02-07T02:05:14.291Z,89.67
2024-02-07T02:07:41.538Z,89.44
2024-02-07T02:10:12.071Z,89.67
2024-02-07T02:12:46.961Z,89.51
2024-02-07T02:15:14.851Z,89.71
2024-02-07T02:17:43.136Z,89.82
2024-02-07T02:20:11.550Z,89.69
2024-02-07T02:23:04.478Z,89.51
2024-02-07T02:26:08.332Z,89.81
2024-02-07T02:28:58.476Z,89.79
2024-02-07T02:31:28.504Z,89.90
2024-02-07T02:33:58.177Z,90.06
2024-02-07T02:36:26.482Z,89.92
2024-02-07T02:38:54.221Z,90.09
2024-02-07T02:41:21.939Z,89.57
2024-02-07T02:43:49.738Z,89.85
2024-02-07T02:46:17.236Z,89.53
2024-02-07T02:48:46.752Z,89.87
2024-02-07T02:51:13.844Z,89.66
2024-02-07T02:53:41.308Z,89.73
2024-02-07T02:56:11.145Z,89.91
2024-02-07T02:58:43.638Z,89.89
2024-02-07T03:01:12.699Z,89.88
2024-02-07T03:03:45.281Z,90.02
2024-02-07T03:06:30.275Z,89.94
2024-02-07T03:09:09.806Z,89.73
2024-02-07T03:11:37.618Z,89.84
2024-02-07T03:14:07.883Z,90.06
2024-02-07T03:16:35.286Z,89.93
2024-02-07T03:19:02.981Z,89.96
2024-02-07T03:21:31.943Z,89.63
2024-02-07T03:23:59.695Z,89.81
2024-02-07T03:26:30.306Z,89.59
2024-02-07T03:28:58.108Z,89.64
2024-02-07T03:31:25.515Z,89.37
2024-02-07T03:33:53.328Z,89.38
2024-02-07T03:36:23.060Z,89.52
2024-02-07T03:38:52.341Z,89.63
2024-02-07T03:41:20.164Z,89.78
2024-02-07T03:43:47.265Z,89.40
2024-02-07T03:46:16.180Z,89.48
2024-02-07T03:48:43.879Z,89.63
2024-02-07T03:51:11.263Z,89.49
2024-02-07T03:53:38.331Z,89.69
2024-02-07T03:56:08.319Z,89.50
2024-02-07T03:58:35.671Z,89.33
2024-02-07T04:01:05.570Z,89.53
2024-02-07T04:03:33.164Z,89.00
2024-02-07T04:06:03.694Z,89.10
2024-02-07T04:08:32.265Z,89.17
2024-02-07T04:11:00.345Z,88.89
2024-02-07T04:13:29.039Z,89.24
2024-02-07T04:16:15.056Z,88.96
2024-02-07T04:19:00.850Z,88.86
2024-02-07T04:21:46.977Z,89.15
2024-02-07T04:24:32.834Z,89.21
2024-02-07T04:27:20.982Z,88.69
2024-02-07T04:30:08.828Z,88.97
2024-02-07T04:32:54.868Z,89.00
2024-02-07T04:35:40.364Z,88.83
2024-02-07T04:38:26.184Z,88.67
2024-02-07T04:41:12.145Z,88.83
2024-02-07T04:43:58.971Z,89.00
2024-02-07T04:46:47.023Z,88.89
2024-02-07T04:49:32.993Z,88.83
2024-02-07T04:52:19.421Z,88.59
2024-02-07T04:55:05.273Z,89.08
2024-02-07T04:57:51.049Z,88.78
2024-02-07T05:00:37.309Z,89.03
2024-02-07T05:03:25.196Z,88.73
2024-02-07T05:06:11.041Z,89.20
2024-02-07T05:08:57.281Z,89.07
2024-02-07T05:11:43.715Z,88.97
2024-02-07T05:14:29.441Z,88.84
2024-02-07T05:16:56.768Z,88.76
2024-02-07T05:19:25.793Z,88.80
2024-02-07T05:21:53.161Z,88.83
2024-02-07T05:24:20.862Z,89.05
2024-02-07T05:26:48.333Z,88.60
2024-02-07T05:29:18.411Z,89.01
2024-02-07T05:31:45.717Z,88.69
2024-02-07T05:34:13.590Z,88.67
2024-02-07T05:36:44.983Z,88.89
2024-02-07T05:39:12.932Z,88.70
2024-02-07T05:41:40.687Z,88.84
2024-02-07T05:44:08.412Z,88.83
2024-02-07T05:46:35.611Z,88.81
2024-02-07T05:49:02.938Z,88.97
2024-02-07T05:51:30.622Z,88.81
2024-02-07T05:53:59.490Z,88.95
2024-02-07T05:56:27.406Z,88.89
2024-02-07T05:58:54.803Z,88.76
2024-02-07T06:01:25.018Z,89.09
2024-02-07T06:03:54.705Z,89.17
2024-02-07T06:06:24.355Z,89.04
2024-02-07T06:08:53.800Z,88.94
2024-02-07T06:11:24.485Z,88.68
2024-02-07T06:13:52.039Z,88.87
2024-02-07T06:16:21.219Z,89.08
2024-02-07T06:18:48.751Z,88.93
2024-02-07T06:21:17.081Z,88.96
2024-02-07T06:23:44.491Z,88.90
2024-02-07T06:26:12.117Z,88.93
2024-02-07T06:28:41.144Z,88.74
2024-02-07T06:31:08.751Z,88.95
2024-02-07T06:33:36.386Z,88.86
2024-02-07T06:36:04.153Z,89.06
2024-02-07T06:38:31.596Z,89.09
2024-02-07T06:40:59.635Z,89.05
2024-02-07T06:43:31.481Z,89.00
2024-02-07T06:46:04.071Z,89.13
2024-02-07T06:48:32.680Z,88.65
2024-02-07T06:51:00.232Z,89.25
2024-02-07T06:53:27.433Z,89.25
2024-02-07T06:55:58.214Z,89.03
2024-02-07T06:58:31.932Z,88.85
2024-02-07T07:01:01.545Z,89.08
2024-02-07T07:03:29.557Z,88.90
2024-02-07T07:05:58.610Z,88.95
2024-02-07T07:08:26.149Z,88.95
2024-02-07T07:10:53.759Z,88.97
2024-02-07T07:13:21.011Z,88.97
2024-02-07T07:15:48.376Z,89.22
2024-02-07T07:18:17.969Z,88.99
2024-02-07T07:20:45.284Z,89.12
2024-02-07T07:23:16.255Z,88.82
2024-02-07T07:25:45.734Z,89.09
2024-02-07T07:28:13.196Z,89.28
2024-02-07T07:30:40.689Z,89.06
2024-02-07T07:33:08.037Z,89.07
2024-02-07T07:35:39.169Z,89.15
2024-02-07T07:38:08.392Z,88.94
2024-02-07T07:40:39.306Z,88.90
2024-02-07T07:43:07.860Z,88.77
2024-02-07T07:45:37.753Z,88.81
2024-02-07T07:48:07.525Z,88.89
2024-02-07T07:50:36.823Z,89.08
2024-02-07T07:53:05.802Z,89.07
2024-02-07T07:55:33.268Z,89.14
2024-02-07T07:58:00.311Z,89.34
2024-02-07T08:00:28.365Z,89.42
2024-02-07T08:02:55.968Z,89.26
2024-02-07T08:05:23.332Z,88.84
2024-02-07T08:07:51.868Z,89.22
2024-02-07T08:10:19.085Z,89.16
2024-02-07T08:12:46.637Z,89.34
2024-02-07T08:15:13.925Z,89.11
2024-02-07T08:17:41.081Z,89.52
2024-02-07T08:20:09.367Z,89.19
2024-02-07T08:22:36.982Z,89.24
2024-02-07T08:25:06.472Z,89.28
2024-02-07T08:27:33.809Z,89.35
2024-02-07T08:30:01.094Z,89.24
2024-02-07T08:32:28.382Z,89.22
2024-02-07T08:34:55.672Z,89.24
2024-02-07T08:37:27.684Z,88.94
2024-02-07T08:39:57.323Z,89.39
2024-02-07T08:42:25.649Z,89.17
2024-02-07T08:44:53.352Z,89.34
2024-02-07T08:47:20.663Z,89.28
2024-02-07T08:49:47.794Z,88.96
2024-02-07T08:52:15.295Z,89.39
2024-02-07T08:54:42.734Z,89.35
2024-02-07T08:57:10.657Z,89.28
2024-02-07T08:59:40.503Z,89.29
2024-02-07T09:02:09.258Z,89.22
2024-02-07T09:04:36.813Z,89.18
2024-02-07T09:07:04.881Z,89.40
2024-02-07T09:09:42.425Z,89.45
2024-02-07T09:12:09.793Z,89.53
2024-02-07T09:14:38.564Z,89.39
2024-02-07T09:17:10.172Z,89.43
2024-02-07T09:19:38.197Z,89.23
2024-02-07T09:22:05.815Z,89.58
2024-02-07T09:24:33.152Z,89.32
2024-02-07T09:27:01.138Z,89.69
2024-02-07T09:29:28.854Z,89.42
2024-02-07T09:31:57.364Z,89.03
2024-02-07T09:34:25.839Z,89.39
2024-02-07T09:36:53.135Z,89.47
2024-02-07T09:39:22.019Z,89.50
2024-02-07T09:41:51.922Z,89.72
2024-02-07T09:44:20.287Z,89.44
2024-02-07T09:46:55.447Z,89.57
2024-02-07T09:49:29.198Z,89.57
2024-02-07T09:51:57.185Z,89.59
2024-02-07T09:54:25.178Z,89.60
2024-02-07T09:56:54.249Z,89.44
2024-02-07T09:59:22.716Z,89.53
2024-02-07T10:01:50.624Z,89.39
2024-02-07T10:04:31.163Z,89.63
2024-02-07T10:06:59.207Z,89.50
2024-02-07T10:09:35.416Z,89.75
2024-02-07T10:12:03.376Z,89.27
2024-02-07T10:14:37.355Z,89.50
2024-02-07T10:17:06.842Z,89.72
2024-02-07T10:19:36.592Z,89.68
2024-02-07T10:22:18.586Z,89.73
2024-02-07T10:24:47.051Z,89.75
2024-02-07T10:27:19.244Z,89.46
2024-02-07T10:29:46.792Z,89.61
2024-02-07T10:32:19.075Z,89.60
2024-02-07T10:34:56.220Z,89.43
2024-02-07T10:37:25.686Z,89.36
2024-02-07T10:40:02.589Z,89.85
2024-02-07T10:42:29.573Z,89.68
2024-02-07T10:45:04.099Z,89.74
2024-02-07T10:47:32.687Z,89.77
2024-02-07T10:50:05.982Z,89.51
2024-02-07T10:52:37.228Z,89.50
2024-02-07T10:55:08.515Z,89.36
2024-02-07T10:57:43.709Z,89.55
2024-02-07T11:00:12.967Z,89.50
2024-02-07T11:02:41.801Z,89.49
2024-02-07T11:05:10.912Z,89.58
2024-02-07T11:07:38.684Z,89.36
2024-02-07T11:10:07.165Z,89.12
2024-02-07T11:12:34.897Z,89.31
2024-02-07T11:15:05.165Z,89.43
2024-02-07T11:17:32.265Z,89.30
2024-02-07T11:19:59.409Z,89.01
2024-02-07T11:22:32.522Z,88.53
2024-02-07T11:25:00.766Z,88.65
2024-02-07T11:27:27.880Z,88.84
2024-02-07T11:29:55.953Z,88.73
2024-02-07T11:32:22.812Z,88.41
2024-02-07T11:34:52.839Z,88.53
2024-02-07T11:37:21.611Z,88.43
2024-02-07T11:39:50.748Z,88.54
2024-02-07T11:42:22.043Z,88.16
2024-02-07T11:44:53.851Z,88.03
2024-02-07T11:47:24.535Z,88.21
2024-02-07T11:49:55.918Z,88.34
2024-02-07T11:52:26.644Z,88.15
2024-02-07T11:54:54.845Z,88.10
2024-02-07T11:57:22.497Z,87.93
2024-02-07T11:59:49.641Z,87.87
2024-02-07T12:02:18.080Z,87.69
2024-02-07T12:04:46.361Z,87.63
2024-02-07T12:07:14.621Z,87.39
2024-02-07T12:09:42.100Z,87.46
2024-02-07T12:12:14.235Z,87.39
2024-02-07T12:14:41.325Z,86.83
2024-02-07T12:17:08.375Z,87.00
2024-02-07T12:19:37.158Z,87.07
2024-02-07T12:22:04.587Z,86.71
2024-02-07T12:24:32.653Z,86.50
2024-02-07T12:27:14.424Z,86.72
2024-02-07T12:29:41.774Z,86.80
2024-02-07T12:32:09.113Z,86.42
2024-02-07T12:34:36.202Z,86.71
2024-02-07T12:37:03.089Z,86.49
2024-02-07T12:39:29.916Z,86.44
2024-02-07T12:41:56.862Z,86.20
2024-02-07T12:44:26.921Z,86.10
2024-02-07T12:46:53.833Z,86.06
2024-02-07T12:49:22.019Z,86.26
2024-02-07T12:51:50.842Z,86.17
2024-02-07T12:54:17.803Z,86.09
2024-02-07T12:56:52.659Z,86.09
2024-02-07T12:59:29.316Z,85.84
2024-02-07T13:01:56.380Z,85.63
2024-02-07T13:04:23.376Z,85.65
2024-02-07T13:06:50.963Z,85.46
2024-02-07T13:09:17.923Z,85.33
2024-02-07T13:11:44.747Z,85.41
2024-02-07T13:14:11.611Z,85.30
2024-02-07T13:16:40.045Z,85.41
2024-02-07T13:19:06.914Z,84.79
2024-02-07T13:21:33.868Z,85.01
2024-02-07T13:24:00.741Z,84.91
2024-02-07T13:26:27.605Z,84.63
2024-02-07T13:28:54.632Z,85.00
2024-02-07T13:31:21.514Z,84.82
2024-02-07T13:33:50.200Z,84.82
2024-02-07T13:36:17.060Z,84.91
2024-02-07T13:38:43.896Z,84.73
2024-02-07T13:41:10.824Z,84.75
2024-02-07T13:43:37.649Z,84.60
2024-02-07T13:46:04.923Z,84.35
2024-02-07T13:48:31.959Z,84.40
2024-02-07T13:51:02.090Z,84.31
2024-02-07T13:53:29.458Z,84.38
2024-02-07T13:55:57.915Z,84.19
2024-02-07T13:58:26.098Z,84.29
2024-02-07T14:00:53.066Z,83.96
2024-02-07T14:03:20.086Z,84.03
2024-02-07T14:05:47.007Z,83.99
2024-02-07T14:08:15.209Z,84.05
2024-02-07T14:10:42.254Z,83.81
2024-02-07T14:13:10.266Z,83.82
2024-02-07T14:15:37.617Z,83.62
2024-02-07T14:18:04.999Z,83.76
2024-02-07T14:20:31.890Z,83.90
2024-02-07T14:22:58.772Z,83.75
2024-02-07T14:25:26.968Z,83.77
2024-02-07T14:27:53.847Z,83.61
2024-02-07T14:30:24.605Z,83.66
2024-02-07T14:32:52.320Z,83.55
2024-02-07T14:35:19.627Z,83.54
2024-02-07T14:37:46.749Z,83.21
2024-02-07T14:40:13.894Z,83.37
2024-02-07T14:42:42.130Z,83.51
2024-02-07T14:45:12.394Z,83.07
2024-02-07T14:47:39.527Z,83.13
2024-02-07T14:50:07.268Z,83.11
2024-02-07T14:52:34.947Z,83.02
2024-02-07T14:55:01.826Z,82.84
2024-02-07T14:57:29.718Z,83.00
2024-02-07T14:59:58.061Z,82.82
2024-02-07T15:02:26.421Z,83.06
2024-02-07T15:04:53.430Z,82.79
2024-02-07T15:07:20.661Z,82.88
2024-02-07T15:09:50.718Z,82.89
2024-02-07T15:12:17.947Z,83.00
2024-02-07T15:14:44.907Z,82.77
2024-02-07T15:17:13.219Z,82.89
2024-02-07T15:19:44.685Z,82.80
2024-02-07T15:22:12.073Z,82.60
2024-02-07T15:24:38.983Z,82.55
2024-02-07T15:27:05.822Z,82.66
2024-02-07T15:29:32.706Z,82.62
2024-02-07T15:31:59.790Z,82.47
2024-02-07T15:34:28.125Z,82.56
2024-02-07T15:36:55.048Z,82.27
2024-02-07T15:39:21.918Z,82.38
2024-02-07T15:41:48.819Z,82.30
2024-02-07T15:44:15.689Z,82.30
2024-02-07T15:46:42.600Z,82.06
2024-02-07T15:49:10.311Z,82.16
2024-02-07T15:51:38.900Z,82.11
2024-02-07T15:54:05.886Z,82.32
2024-02-07T15:56:32.752Z,82.12
2024-02-07T15:58:59.774Z,82.11
2024-02-07T16:01:36.534Z,82.25
2024-02-07T16:04:08.657Z,82.17
2024-02-07T16:06:36.377Z,82.01
2024-02-07T16:09:04.971Z,82.27
2024-02-07T16:11:31.899Z,82.11
2024-02-07T16:13:59.001Z,82.29
2024-02-07T16:16:26.020Z,82.46
2024-02-07T16:18:52.943Z,82.30
2024-02-07T16:21:19.850Z,82.42
2024-02-07T16:23:46.742Z,82.34
2024-02-07T16:26:15.027Z,82.32
2024-02-07T16:28:41.922Z,82.28
2024-02-07T16:31:09.669Z,82.38
2024-02-07T16:33:37.486Z,82.37
2024-02-07T16:36:07.143Z,82.52
2024-02-07T16:38:33.958Z,82.37
2024-02-07T16:41:00.862Z,82.40
2024-02-07T16:43:29.455Z,82.03
2024-02-07T16:45:56.549Z,82.23
2024-02-07T16:48:23.584Z,82.22
2024-02-07T16:50:50.753Z,82.22
2024-02-07T16:53:17.592Z,82.14
2024-02-07T16:55:44.991Z,82.49
2024-02-07T16:58:11.934Z,82.23
2024-02-07T17:00:40.622Z,82.32
2024-02-07T17:03:07.830Z,82.34
2024-02-07T17:05:34.854Z,82.23
2024-02-07T17:08:01.895Z,82.36
2024-02-07T17:10:28.937Z,82.40
2024-02-07T17:12:56.142Z,82.48
2024-02-07T17:15:23.073Z,82.44
2024-02-07T17:17:51.342Z,82.50
2024-02-07T17:20:19.114Z,82.13
2024-02-07T17:22:46.085Z,82.42
2024-02-07T17:25:13.592Z,82.48
2024-02-07T17:27:41.766Z,82.10
2024-02-07T17:30:14.647Z,82.39
2024-02-07T17:32:49.120Z,82.63
2024-02-07T17:35:17.733Z,82.40
2024-02-07T17:37:44.878Z,82.75
2024-02-07T17:40:12.414Z,82.66
2024-02-07T17:42:39.260Z,82.57
2024-02-07T17:45:06.608Z,82.50
2024-02-07T17:47:34.528Z,82.73
2024-02-07T17:50:01.569Z,82.73
2024-02-07T17:52:29.847Z,82.72
2024-02-07T17:54:56.723Z,82.75
2024-02-07T17:57:23.692Z,82.57
2024-02-07T17:59:50.596Z,82.46
2024-02-07T18:02:17.760Z,82.39
2024-02-07T18:04:44.965Z,82.48
2024-02-07T18:07:12.123Z,82.32
2024-02-07T18:09:40.549Z,82.44
2024-02-07T18:12:09.071Z,82.26
2024-02-07T18:14:36.124Z,82.19
2024-02-07T18:17:04.299Z,82.63
2024-02-07T18:19:31.316Z,82.43
2024-02-07T18:21:59.398Z,82.67
2024-02-07T18:24:26.503Z,82.46
2024-02-07T18:26:54.862Z,82.39
2024-02-07T18:29:21.710Z,82.66
2024-02-07T18:31:48.583Z,82.50
2024-02-07T18:34:15.656Z,82.64
2024-02-07T18:36:42.683Z,82.85
2024-02-07T18:39:09.685Z,82.85
2024-02-07T18:41:36.516Z,82.82
2024-02-07T18:44:05.097Z,82.52
2024-02-07T18:46:32.006Z,82.76
2024-02-07T18:48:59.139Z,82.67
2024-02-07T18:51:30.265Z,82.80
2024-02-07T18:53:58.089Z,82.88
2024-02-07T18:56:25.194Z,82.93
2024-02-07T18:58:52.162Z,82.72
2024-02-07T19:01:20.406Z,82.83
2024-02-07T19:03:47.480Z,82.90
2024-02-07T19:06:14.428Z,82.84
2024-02-07T19:08:46.769Z,82.79
2024-02-07T19:11:14.003Z,82.31
2024-02-07T19:13:40.928Z,82.44
2024-02-07T19:16:10.685Z,82.86
2024-02-07T19:18:38.925Z,82.83
2024-02-07T19:21:06.002Z,82.82
2024-02-07T19:23:32.983Z,82.80
2024-02-07T19:26:00.209Z,82.63
2024-02-07T19:28:27.107Z,82.44
2024-02-07T19:30:54.017Z,82.91
2024-02-07T19:33:20.928Z,82.62
2024-02-07T19:35:49.457Z,82.95
2024-02-07T19:38:19.393Z,82.94
2024-02-07T19:40:47.188Z,83.18
2024-02-07T19:43:14.210Z,82.98
2024-02-07T19:45:41.073Z,82.98
2024-02-07T19:48:08.633Z,83.33
2024-02-07T19:50:35.540Z,83.52
2024-02-07T19:53:04.237Z,83.34
2024-02-07T19:55:31.074Z,83.48
2024-02-07T19:57:58.067Z,83.66
2024-02-07T20:00:25.489Z,83.50
2024-02-07T20:02:52.590Z,83.50
2024-02-07T20:05:20.120Z,83.61
2024-02-07T20:07:47.383Z,83.65
2024-02-07T20:10:16.034Z,83.50
2024-02-07T20:12:42.810Z,83.29
2024-02-07T20:15:10.230Z,83.59
2024-02-07T20:17:39.094Z,83.36
2024-02-07T20:20:07.464Z,83.43
2024-02-07T20:22:34.306Z,83.49
2024-02-07T20:25:01.136Z,83.78
2024-02-07T20:27:29.511Z,83.70
2024-02-07T20:30:02.156Z,83.84
2024-02-07T20:32:29.349Z,83.80
2024-02-07T20:34:56.408Z,83.39
2024-02-07T20:37:25.511Z,83.70
2024-02-07T20:39:52.537Z,83.15
2024-02-07T20:42:19.543Z,83.18
2024-02-07T20:44:47.854Z,83.54
2024-02-07T20:47:14.948Z,83.69
2024-02-07T20:49:41.833Z,83.70
2024-02-07T20:52:08.929Z,83.79
2024-02-07T20:54:38.189Z,84.09
2024-02-07T20:57:05.680Z,83.77
2024-02-07T20:59:32.704Z,83.60
2024-02-07T21:02:01.123Z,83.75
2024-02-07T21:04:28.129Z,83.86
2024-02-07T21:06:55.152Z,83.89
2024-02-07T21:09:22.037Z,83.80
2024-02-07T21:11:49.741Z,83.55
2024-02-07T21:14:16.912Z,83.67
2024-02-07T21:16:43.882Z,83.59
2024-02-07T21:19:12.174Z,83.67
2024-02-07T21:21:39.064Z,84.06
2024-02-07T21:24:08.237Z,83.98
2024-02-07T21:26:35.044Z,84.16
2024-02-07T21:29:02.277Z,83.79
2024-02-07T21:31:29.237Z,83.81
2024-02-07T21:33:56.232Z,83.79
2024-02-07T21:36:24.545Z,83.77
2024-02-07T21:38:51.356Z,83.98
2024-02-07T21:41:18.329Z,83.84
2024-02-07T21:43:46.853Z,83.93
2024-02-07T21:46:13.750Z,84.27
2024-02-07T21:48:40.665Z,83.68
2024-02-07T21:51:07.826Z,83.67
2024-02-07T21:53:36.087Z,83.87
2024-02-07T21:56:03.317Z,83.81
2024-02-07T21:58:30.396Z,83.74
2024-02-07T22:00:57.253Z,83.80
2024-02-07T22:03:24.215Z,84.08
2024-02-07T22:05:51.069Z,83.99
2024-02-07T22:08:18.102Z,84.01
2024-02-07T22:10:46.652Z,84.15
2024-02-07T22:13:13.573Z,84.22
2024-02-07T22:15:40.458Z,83.91
2024-02-07T22:18:07.785Z,83.97
2024-02-07T22:20:35.058Z,84.22
2024-02-07T22:23:02.016Z,84.10
2024-02-07T22:25:29.107Z,84.18
2024-02-07T22:27:57.815Z,83.93
2024-02-07T22:30:24.921Z,83.94
2024-02-07T22:32:52.461Z,84.10
2024-02-07T22:35:19.885Z,84.14
2024-02-07T22:37:47.469Z,84.16
2024-02-07T22:40:16.376Z,84.10
2024-02-07T22:42:43.246Z,83.93
2024-02-07T22:45:11.727Z,84.06
2024-02-07T22:47:38.811Z,84.18
2024-02-07T22:50:06.936Z,83.90
2024-02-07T22:52:34.036Z,83.78
2024-02-07T22:55:00.885Z,84.14
2024-02-07T22:57:28.174Z,84.09
2024-02-07T22:59:54.998Z,84.47
2024-02-07T23:02:23.320Z,84.12
2024-02-07T23:04:51.372Z,84.21
2024-02-07T23:07:19.394Z,84.15
2024-02-07T23:09:46.641Z,83.82
2024-02-07T23:12:13.488Z,83.99
2024-02-07T23:14:40.372Z,83.99
2024-02-07T23:17:07.490Z,84.02
2024-02-07T23:19:35.794Z,84.42
2024-02-07T23:22:05.498Z,84.30
2024-02-07T23:24:32.410Z,84.36
2024-02-07T23:26:59.387Z,84.23
2024-02-07T23:29:26.343Z,84.07
2024-02-07T23:31:54.550Z,84.28
2024-02-07T23:34:21.550Z,84.73
2024-02-07T23:36:49.920Z,84.30
2024-02-07T23:39:16.979Z,83.96
2024-02-07T23:41:43.878Z,84.06
2024-02-07T23:44:11.179Z,84.20
2024-02-07T23:46:38.497Z,84.13
2024-02-07T23:49:05.386Z,84.27
2024-02-07T23:51:34.253Z,84.21
2024-02-07T23:54:02.504Z,84.41
2024-02-07T23:56:29.435Z,84.31
2024-02-07T23:58:56.292Z,84.58
